Weather at Hall of Justice Helipad

Public forecast

Using degrees Fahrenheit for public forecast. Weather courtesy of forecast.io.

Closest aviation weather report (METAR) to Hall of Justice Helipad

Closest report is San Diego International Airport, 1.6 nm (3.0 km) NW.

2024/07/16 18:51 (retrieved 31 minutes ago)

KSAN 161851Z 30006KT 10SM FEW015 SCT050 BKN250 23/17 A3002 RMK AO2 SLP166 T02330172

Closest aviation forecast (TAF) to Hall of Justice Helipad

Closest forecast is San Diego International Airport, 1.6 nm (3.0 km) NW.

2024/07/16 19:42 Ammendment (retrieved 0 seconds ago)

TAF AMD KSAN 161840Z 1619/1724 28010KT P6SM SCT015 SCT200 FM170300 VRB05KT P6SM OVC012 FM171800 26005KT P6SM SCT015 FM171900 27011KT P6SM SCT015